Flight Track Log - Related Links

Times and Time Zones

All times are in EDT time to prevent confusion due to time zone crossing. See the SWA1903 flight status page for this flight to view local times or setup timezone preferences in your user account.


Time Position Orientation Groundspeed Altitude Reporting Facility
EDT Latitude Longitude Course Direction KTS MPH feet Rate Location/Type
Fri 09:51:38 AM 42.2333 -83.3344 11° North 170 196 1,200  Level Cleveland Center
Fri 09:52:21 AM 42.2711 -83.3247 11° North 205 236 2,600 2,621 Climbing Cleveland Center
Fri 09:53:21 AM 42.3300 -83.3106 10° North 218 251 5,700 2,826 Climbing Cleveland Center
Fri 09:54:22 AM 42.3725 -83.3572 321° Northwest 270 311 8,300 2,427 Climbing Cleveland Center
Fri 09:55:32 AM 42.3781 -83.4756 274° West 324 373 11,000 2,169 Climbing Cleveland Center
Fri 09:56:32 AM 42.3875 -83.5942 276° West 340 391 13,000 2,700 Climbing Cleveland Center
Fri 09:57:32 AM 42.3964 -83.7294 275° West 358 412 16,400 2,900 Climbing Cleveland Center
Fri 09:58:32 AM 42.4050 -83.8650 275° West 358 412 18,800 2,600 Climbing Cleveland Center
Fri 09:59:32 AM 42.4133 -84.0061 275° West 375 432 21,600 2,400 Climbing Cleveland Center
Fri 10:00:32 AM 42.4217 -84.1472 275° West 380 437 23,600 1,850 Climbing Cleveland Center
Fri 10:01:32 AM 42.4275 -84.2939 273° West 386 444 25,300 1,550 Climbing Cleveland Center
Fri 10:02:32 AM 42.4328 -84.4461 273° West 398 458 26,700 1,400 Climbing Cleveland Center
Fri 10:03:32 AM 42.4356 -84.6067 271° West 414 476 28,100 1,403 Climbing Cleveland Center
Fri 10:03:49 AM 42.4383 -84.6356 277° West 427 491 28,500 2,278 Climbing Chicago Center
Fri 10:04:51 AM 42.4439 -84.8272 272° West 428 493 31,100 2,081 Climbing Chicago Center
Fri 10:05:53 AM 42.4481 -84.9808 272° West 415 478 32,800 919 Climbing Chicago Center
Fri 10:06:55 AM 42.4503 -85.1342 271° West 413 475 33,000 97 Climbing Chicago Center
Fri 10:07:57 AM 42.4542 -85.2886 272° West 412 474 33,000  Level Chicago Center
Fri 10:08:59 AM 42.4567 -85.4422 271° West 412 474 33,000  Level Chicago Center
Fri 10:10:01 AM 42.4592 -85.6261 271° West 410 472 33,000  Level Chicago Center
Fri 10:11:03 AM 42.4619 -85.7792 271° West 410 472 33,000  Level Chicago Center
Fri 10:12:05 AM 42.4639 -85.9331 271° West 411 473 33,000 435 Level Chicago Center
Fri 10:13:07 AM 42.4667 -86.0883 271° West 414 476 33,900 1,161 Climbing Chicago Center
Fri 10:14:09 AM 42.4494 -86.2428 261° West 417 480 35,400 1,016 Climbing Chicago Center
Fri 10:15:11 AM 42.4300 -86.3942 260° West 413 475 36,000 290 Climbing Chicago Center
Fri 10:16:13 AM 42.4083 -86.5758 261° West 411 473 36,000  Level Chicago Center
Fri 10:17:15 AM 42.3889 -86.7136 259° West 409 471 36,000  Level Chicago Center
Fri 10:18:17 AM 42.3656 -86.8936 260° West 409 471 36,000  Level Chicago Center
Fri 10:19:19 AM 42.3464 -87.0442 260° West 409 471 36,000  Level Chicago Center
Fri 10:20:21 AM 42.3256 -87.1956 260° West 412 474 36,000 242 Level Chicago Center
Fri 10:21:23 AM 42.3061 -87.3453 260° West 410 472 36,500 823 Climbing Chicago Center
Fri 10:22:25 AM 42.2856 -87.4953 260° West 411 473 37,700 726 Climbing Chicago Center
Fri 10:23:27 AM 42.2611 -87.6731 260° West 403 464 38,000 145 Climbing Chicago Center
Fri 10:24:29 AM 42.2406 -87.8228 260° West 408 470 38,000  Level Chicago Center
Fri 10:25:31 AM 42.2183 -87.9717 259° West 409 471 38,000  Level Chicago Center
Fri 10:26:33 AM 42.1911 -88.1200 256° West 412 474 38,000  Level Chicago Center
Fri 10:27:35 AM 42.1656 -88.2653 257° West 405 466 38,000  Level Chicago Center
Fri 10:28:37 AM 42.1347 -88.4425 257° West 408 470 38,000  Level Chicago Center
Fri 10:29:39 AM 42.1078 -88.5914 256° West 412 474 38,000  Level Chicago Center
Fri 10:30:42 AM 42.0811 -88.7381 256° West 409 471 38,000  Level Chicago Center
Fri 10:31:44 AM 42.0542 -88.8864 256° West 411 473 38,000  Level Chicago Center
Fri 10:32:46 AM 42.0264 -89.0353 256° West 413 475 38,000  Level Chicago Center
Fri 10:33:48 AM 41.9939 -89.2150 256° West 416 479 38,000  Level Chicago Center
Fri 10:34:50 AM 41.9656 -89.3633 256° West 414 476 38,000  Level Chicago Center
Fri 10:35:52 AM 41.9381 -89.5133 256° West 416 479 38,000  Level Chicago Center
Fri 10:36:54 AM 41.9089 -89.6622 255° West 416 479 38,000  Level Chicago Center
Fri 10:37:56 AM 41.8803 -89.8128 256° West 418 481 38,000  Level Chicago Center
Fri 10:38:58 AM 41.8436 -89.9772 253° West 422 486 38,000  Level Chicago Center
Fri 10:40:00 AM 41.8067 -90.1261 252° West 425 489 38,000  Level Chicago Center
Fri 10:41:02 AM 41.7669 -90.2811 251° West 436 502 38,000  Level Chicago Center
Fri 10:42:04 AM 41.7217 -90.4633 252° West 431 496 38,000  Level Chicago Center
Fri 10:43:06 AM 41.6831 -90.6114 251° West 425 489 38,000  Level Chicago Center
Fri 10:44:08 AM 41.6458 -90.7575 251° West 429 494 38,000  Level Chicago Center
Fri 10:45:10 AM 41.6083 -90.9050 251° West 423 487 38,000  Level Chicago Center
Fri 10:46:12 AM 41.5708 -91.0533 251° West 423 487 38,000  Level Chicago Center
Fri 10:47:14 AM 41.5242 -91.2308 251° West 424 488 38,000  Level Chicago Center
Fri 10:48:16 AM 41.4864 -91.3750 251° West 416 479 38,000  Level Chicago Center
Fri 10:49:18 AM 41.4492 -91.5189 251° West 414 476 38,000  Level Chicago Center
Fri 10:50:20 AM 41.4108 -91.6592 250° West 408 470 38,000  Level Chicago Center
Fri 10:51:22 AM 41.3733 -91.8017 251° West 409 471 38,000  Level Chicago Center
Fri 10:52:24 AM 41.3361 -91.9425 251° West 406 467 38,000  Level Chicago Center
Fri 10:53:26 AM 41.2889 -92.1131 250° West 412 474 38,000  Level Chicago Center
Fri 10:54:28 AM 41.2503 -92.2561 250° West 413 475 38,000  Level Chicago Center
Fri 10:55:29 AM 41.2144 -92.3903 250° West 420 483 38,000  Level Chicago Center
Fri 10:56:31 AM 41.1669 -92.5611 250° West 418 481 38,000  Level Chicago Center
Fri 10:57:33 AM 41.1278 -92.7047 250° West 417 480 38,000  Level Chicago Center
Fri 10:58:07 AM 41.1042 -92.7917 250° West 420 483 38,000  Level Minneapolis Center
Fri 10:58:35 AM 41.0872 -92.8489 249° West 422 486 38,000  Level Chicago Center
Fri 10:59:09 AM 41.0633 -92.9344 250° West 420 483 38,000  Level Minneapolis Center
Fri 11:00:14 AM 41.0239 -93.0775 250° West 419 482 38,000  Level Minneapolis Center
Fri 11:01:15 AM 40.9761 -93.2442 249° West 412 474 38,000  Level Minneapolis Center
Fri 11:02:17 AM 40.9358 -93.3864 249° West 415 478 38,000  Level Minneapolis Center
Fri 11:03:19 AM 40.8958 -93.5281 250° West 416 479 38,000  Level Minneapolis Center
Fri 11:04:21 AM 40.8561 -93.6681 249° West 415 478 38,000  Level Minneapolis Center
Fri 11:05:23 AM 40.8167 -93.8092 250° West 414 476 38,000  Level Minneapolis Center
Fri 11:06:25 AM 40.7656 -93.9786 248° West 417 480 38,000  Level Minneapolis Center
Fri 11:07:27 AM 40.7233 -94.1200 249° West 418 481 38,000  Level Minneapolis Center
Fri 11:08:29 AM 40.6817 -94.2614 249° West 418 481 38,000  Level Minneapolis Center
Fri 11:09:31 AM 40.6392 -94.4022 248° West 418 481 38,000  Level Minneapolis Center
Fri 11:10:33 AM 40.5903 -94.5675 249° West 419 482 38,000  Level Minneapolis Center
Fri 11:11:35 AM 40.5492 -94.7103 249° West 417 480 38,000  Level Minneapolis Center
Fri 11:12:37 AM 40.5053 -94.8539 248° West 419 482 38,000  Level Minneapolis Center
Fri 11:13:39 AM 40.4644 -94.9942 249° West 416 479 38,000  Level Minneapolis Center
Fri 11:14:41 AM 40.4217 -95.1364 248° West 415 478 38,000  Level Minneapolis Center
Fri 11:15:42 AM 40.3761 -95.2833 248° West 424 488 38,000  Level Minneapolis Center
Fri 11:16:44 AM 40.3325 -95.4244 248° West 421 484 38,000  Level Minneapolis Center
Fri 11:17:46 AM 40.2808 -95.5922 248° West 415 478 38,000  Level Minneapolis Center
Fri 11:18:48 AM 40.2369 -95.7331 248° West 416 479 38,000  Level Minneapolis Center
Fri 11:19:50 AM 40.1936 -95.8742 248° West 416 479 38,000  Level Minneapolis Center
Fri 11:20:52 AM 40.1506 -96.0142 248° West 414 476 38,000  Level Minneapolis Center
Fri 11:21:54 AM 40.1061 -96.1539 247° West 415 478 38,000  Level Minneapolis Center
Fri 11:22:56 AM 40.0619 -96.2936 248° West 416 479 38,000  Level Minneapolis Center
Fri 11:23:57 AM 40.0178 -96.4331 248° West 416 479 38,000  Level Minneapolis Center
Fri 11:24:59 AM 39.9736 -96.5728 248° West 416 479 38,000  Level Minneapolis Center
Fri 11:26:01 AM 39.9194 -96.7403 247° West 418 481 38,000  Level Minneapolis Center
Fri 11:27:03 AM 39.8733 -96.8811 247° West 420 483 38,000  Level Minneapolis Center
Fri 11:27:57 AM 39.8311 -97.0111 247° West 417 480 38,000  Level Kansas City Center
Fri 11:28:59 AM 39.7864 -97.1508 247° West 417 480 38,000  Level Kansas City Center
Fri 11:30:01 AM 39.7400 -97.2903 247° West 417 480 38,000  Level Kansas City Center
Fri 11:31:03 AM 39.6950 -97.4272 247° West 416 479 38,000  Level Kansas City Center
Fri 11:32:12 AM 39.6469 -97.5703 246° West 411 473 38,000  Level Minneapolis Center
Fri 11:33:14 AM 39.5961 -97.7267 247° West 411 473 38,000  Level Minneapolis Center
Fri 11:34:09 AM 39.5500 -97.8636 246° West 411 473 38,000  Level Kansas City Center
Fri 11:35:11 AM 39.5119 -97.9767 246° West 414 476 38,000  Level Kansas City Center
Fri 11:36:13 AM 39.4547 -98.1425 246° West 414 476 38,000  Level Kansas City Center
Fri 11:36:34 AM 39.4389 -98.1911 247° West 413 475 38,000  Level Denver Center
Fri 11:37:37 AM 39.3922 -98.3278 246° West 414 476 38,000  Level Denver Center
Fri 11:38:18 AM 39.3650 -98.4106 247° West 415 478 38,000  Level Kansas City Center
Fri 11:38:38 AM 39.3461 -98.4664 246° West 417 480 38,000  Level Denver Center
Fri 11:39:40 AM 39.2978 -98.6044 246° West 420 483 38,000  Level Denver Center
Fri 11:40:42 AM 39.2503 -98.7425 246° West 420 483 38,000  Level Denver Center
Fri 11:41:44 AM 39.2019 -98.8822 246° West 425 489 38,000  Level Denver Center
Fri 11:42:47 AM 39.1522 -99.0247 246° West 422 486 38,000  Level Denver Center
Fri 11:43:49 AM 39.0989 -99.1789 246° West 422 486 38,000  Level Denver Center
Fri 11:44:51 AM 39.0522 -99.3094 245° Southwest 419 482 38,000  Level Denver Center
Fri 11:45:53 AM 38.9986 -99.4611 246° West 418 481 38,000  Level Denver Center
Fri 11:46:55 AM 38.9517 -99.5931 245° Southwest 423 487 38,000  Level Denver Center
Fri 11:47:57 AM 38.8975 -99.7453 245° Southwest 421 484 38,000  Level Denver Center
Fri 11:48:59 AM 38.8508 -99.8761 245° Southwest 421 484 38,000  Level Denver Center
Fri 11:50:01 AM 38.7958 -100.0272 245° Southwest 421 484 38,000  Level Denver Center
Fri 11:51:03 AM 38.7486 -100.1578 245° Southwest 422 486 38,000  Level Denver Center
Fri 11:52:05 AM 38.6933 -100.3086 245° Southwest 420 483 38,000  Level Denver Center
Fri 11:53:07 AM 38.6456 -100.4394 245° Southwest 423 487 38,000  Level Denver Center
Fri 11:54:09 AM 38.5897 -100.5922 245° Southwest 425 489 38,000  Level Denver Center
Fri 11:55:11 AM 38.5422 -100.7206 245° Southwest 421 484 38,000  Level Denver Center
Fri 11:56:13 AM 38.4858 -100.8733 245° Southwest 425 489 38,000  Level Denver Center
Fri 11:57:15 AM 38.4378 -101.0000 244° Southwest 419 482 38,000  Level Denver Center
Fri 11:58:17 AM 38.3819 -101.1511 245° Southwest 423 487 38,000  Level Denver Center
Fri 11:59:19 AM 38.3347 -101.2786 245° Southwest 418 481 38,000  Level Denver Center
Fri 12:00:21 PM 38.2839 -101.4306 247° West 419 482 38,000  Level Denver Center
Fri 12:01:23 PM 38.2403 -101.5592 247° West 418 481 38,000  Level Denver Center
Fri 12:02:25 PM 38.1903 -101.7103 247° West 418 481 38,000  Level Denver Center
Fri 12:03:27 PM 38.1467 -101.8392 247° West 419 482 38,000  Level Denver Center
Fri 12:04:29 PM 38.0969 -101.9883 247° West 415 478 38,000  Level Denver Center
Fri 12:05:31 PM 38.0511 -102.1178 246° West 419 482 38,000  Level Denver Center
Fri 12:06:33 PM 37.9983 -102.2708 246° West 424 488 38,000  Level Denver Center
Fri 12:07:36 PM 37.9536 -102.4022 247° West 425 489 38,000  Level Denver Center
Fri 12:08:38 PM 37.9033 -102.5492 247° West 426 490 38,000  Level Denver Center
Fri 12:09:40 PM 37.8567 -102.6800 246° West 426 490 38,000  Level Denver Center
Fri 12:10:42 PM 37.7750 -102.8119 232° Southwest 426 490 38,000  Level Denver Center
Fri 12:11:44 PM 37.7044 -102.9250 232° Southwest 426 490 38,000  Level Denver Center
Fri 12:12:45 PM 37.6467 -103.0186 232° Southwest 425 489 38,000  Level Denver Center
Fri 12:14:00 PM 37.5553 -103.1644 232° Southwest 416 479 38,000  Level Denver Center
Fri 12:15:02 PM 37.4656 -103.3072 232° Southwest 408 470 38,000  Level Denver Center
Fri 12:16:04 PM 37.3983 -103.4161 232° Southwest 409 471 38,000  Level Denver Center
Fri 12:17:08 PM 37.3247 -103.5475 235° Southwest 410 472 38,000  Level Albuquerque Center
Fri 12:18:08 PM 37.2856 -103.6750 249° West 411 473 38,000  Level Denver Center
Fri 12:19:10 PM 37.2372 -103.8239 248° West 410 472 38,000  Level Denver Center
Fri 12:20:12 PM 37.1956 -103.9525 248° West 411 473 38,000  Level Denver Center
Fri 12:21:14 PM 37.1544 -104.0808 248° West 412 474 38,000  Level Denver Center
Fri 12:22:16 PM 37.1058 -104.2303 248° West 411 473 38,000  Level Denver Center
Fri 12:23:18 PM 37.0636 -104.3589 248° West 415 478 38,000  Level Denver Center
Fri 12:24:21 PM 37.0147 -104.5103 248° West 417 480 38,000  Level Denver Center
Fri 12:25:23 PM 36.9728 -104.6378 248° West 415 478 38,000  Level Denver Center
Fri 12:26:25 PM 36.9231 -104.7861 247° West 413 475 38,000  Level Denver Center
Fri 12:27:27 PM 36.8803 -104.9214 248° West 412 474 38,000  Level Denver Center
Fri 12:28:30 PM 36.8339 -105.0586 247° West 410 472 38,000  Level Albuquerque Center
Fri 12:29:32 PM 36.7919 -105.1811 247° West 404 465 38,000  Level Albuquerque Center
Fri 12:30:37 PM 36.7444 -105.3242 248° West 401 461 38,000  Level Albuquerque Center
Fri 12:31:35 PM 36.7036 -105.4475 248° West 397 457 38,000  Level Denver Center
Fri 12:32:37 PM 36.6622 -105.5692 247° West 399 459 38,000  Level Denver Center
Fri 12:33:39 PM 36.6131 -105.7108 247° West 400 460 38,000  Level Denver Center
Fri 12:34:41 PM 36.5672 -105.8422 247° West 405 466 38,000  Level Denver Center
Fri 12:35:43 PM 36.5222 -105.9756 247° West 408 470 38,000  Level Denver Center
Fri 12:36:45 PM 36.4786 -106.1017 247° West 410 472 38,000  Level Denver Center
Fri 12:37:49 PM 36.4283 -106.2489 247° West 413 475 38,000  Level Albuquerque Center
Fri 12:38:51 PM 36.3778 -106.3972 247° West 416 479 38,000  Level Albuquerque Center
Fri 12:39:53 PM 36.3328 -106.5231 246° West 417 480 38,000  Level Albuquerque Center
Fri 12:40:55 PM 36.2883 -106.6475 246° West 414 476 38,000  Level Albuquerque Center
Fri 12:41:57 PM 36.2386 -106.7939 247° West 412 474 38,000  Level Albuquerque Center
Fri 12:42:59 PM 36.1939 -106.9164 246° West 410 472 38,000  Level Albuquerque Center
Fri 12:44:01 PM 36.1492 -107.0406 246° West 410 472 38,000  Level Albuquerque Center
Fri 12:45:03 PM 36.0994 -107.1842 247° West 409 471 38,000  Level Albuquerque Center
Fri 12:46:05 PM 36.0467 -107.3292 246° West 413 475 38,000  Level Albuquerque Center
Fri 12:47:07 PM 36.0014 -107.4533 246° West 415 478 38,000 -339 Level Albuquerque Center
Fri 12:48:09 PM 35.9481 -107.5986 246° West 414 476 37,300 -484 Descending Albuquerque Center
Fri 12:49:11 PM 35.9042 -107.7225 246° West 412 474 37,000 -576 Descending Albuquerque Center
Fri 12:50:14 PM 35.8531 -107.8656 246° West 409 471 36,100 -480 Descending Albuquerque Center
Fri 12:51:16 PM 35.8069 -107.9900 245° Southwest 413 475 36,000 -48 Descending Albuquerque Center
Fri 12:52:18 PM 35.7531 -108.1344 245° Southwest 414 476 36,000  Level Albuquerque Center
Fri 12:53:20 PM 35.7078 -108.2586 246° West 414 476 36,000  Level Albuquerque Center
Fri 12:54:22 PM 35.6625 -108.3808 246° West 412 474 36,000  Level Albuquerque Center
Fri 12:55:24 PM 35.5914 -108.5106 236° Southwest 410 472 36,000  Level Albuquerque Center
Fri 12:56:26 PM 35.5236 -108.6156 232° Southwest 407 468 36,000  Level Albuquerque Center
Fri 12:57:28 PM 35.4447 -108.7386 232° Southwest 408 470 36,000  Level Albuquerque Center
Fri 12:58:30 PM 35.3761 -108.8447 232° Southwest 412 474 36,000  Level Albuquerque Center
Fri 12:59:32 PM 35.2958 -108.9681 231° Southwest 413 475 36,000  Level Albuquerque Center
Fri 01:00:35 PM 35.2272 -109.0733 231° Southwest 413 475 36,000  Level Albuquerque Center
Fri 01:01:36 PM 35.1469 -109.1958 231° Southwest 412 474 36,000  Level Albuquerque Center
Fri 01:02:38 PM 35.0792 -109.2994 231° Southwest 409 471 36,000  Level Albuquerque Center
Fri 01:03:40 PM 35.0111 -109.4022 231° Southwest 407 468 36,000  Level Albuquerque Center
Fri 01:04:42 PM 34.9311 -109.5192 230° Southwest 401 461 36,000  Level Albuquerque Center
Fri 01:05:44 PM 34.8636 -109.6200 231° Southwest 401 461 36,000  Level Albuquerque Center
Fri 01:06:46 PM 34.7847 -109.7400 231° Southwest 404 465 36,000  Level Albuquerque Center
Fri 01:07:48 PM 34.7158 -109.8447 231° Southwest 411 473 36,000  Level Albuquerque Center
Fri 01:08:50 PM 34.6611 -109.9831 244° Southwest 409 471 36,000  Level Albuquerque Center
Fri 01:09:52 PM 34.6158 -110.1042 246° West 410 472 36,000  Level Albuquerque Center
Fri 01:10:55 PM 34.5664 -110.2519 248° West 417 480 36,000 -912 Level Albuquerque Center
Fri 01:11:57 PM 34.5172 -110.3656 242° Southwest 404 465 34,100 -1,452 Descending Albuquerque Center
Fri 01:12:59 PM 34.4742 -110.4956 248° West 422 486 33,000 -1,452 Descending Albuquerque Center
Fri 01:14:01 PM 34.4253 -110.6208 245° Southwest 416 479 31,100 -2,226 Descending Albuquerque Center
Fri 01:15:03 PM 34.3664 -110.7672 244° Southwest 405 466 28,400 -1,839 Descending Albuquerque Center
Fri 01:16:05 PM 34.2997 -110.8656 231° Southwest 383 441 27,300 -2,032 Descending Albuquerque Center
Fri 01:17:07 PM 34.2300 -110.9567 227° Southwest 370 426 24,200 -2,516 Descending Albuquerque Center
Fri 01:18:09 PM 34.1631 -111.0450 228° Southwest 363 418 22,100 -1,935 Descending Albuquerque Center
Fri 01:19:11 PM 34.0961 -111.1278 226° Southwest 351 404 20,200 -1,887 Descending Albuquerque Center
Fri 01:20:13 PM 34.0361 -111.2075 228° Southwest 331 381 18,200 -2,274 Descending Albuquerque Center
Fri 01:21:15 PM 33.9758 -111.2844 227° Southwest 319 367 15,500 -2,516 Descending Albuquerque Center
Fri 01:22:17 PM 33.9006 -111.3800 227° Southwest 325 374 13,000 -2,129 Descending Albuquerque Center
Fri 01:23:19 PM 33.8492 -111.4656 234° Southwest 316 364 11,100 -1,452 Descending Albuquerque Center
Fri 01:24:21 PM 33.8039 -111.5533 238° Southwest 308 354 10,000 -532 Descending Albuquerque Center
Fri 01:25:23 PM 33.7564 -111.6422 237° Southwest 312 359 10,000 -48 Level Albuquerque Center
Fri 01:26:25 PM 33.7092 -111.7306 237° Southwest 313 360 9,900 -435 Descending Albuquerque Center
Fri 01:27:27 PM 33.6650 -111.8103 236° Southwest 287 330 9,100 -435 Descending Albuquerque Center
Fri 01:28:29 PM 33.6256 -111.8833 237° Southwest 265 305 9,000 -145 Descending Albuquerque Center
Fri 01:29:31 PM 33.5878 -111.9528 237° Southwest 250 288 8,800 -726 Descending Albuquerque Center
Fri 01:30:33 PM 33.5447 -112.0356 238° Southwest 236 272 7,500 -1,104 Descending Albuquerque Center
Fri 01:31:36 PM 33.5261 -112.1050 252° West 247 284 6,500 -1,104 Descending Albuquerque Center
Fri 01:32:38 PM 33.5250 -112.1800 269° West 227 261 5,200 -1,258 Descending Albuquerque Center
Fri 01:33:40 PM 33.4792 -112.2133 211° Southwest 230 265 3,900 -1,113 Descending Albuquerque Center
Fri 01:34:42 PM 33.4428 -112.1578 128° Southeast 219 252 2,900 -919 Descending Albuquerque Center
Fri 01:35:44 PM 33.4406 -112.0878 92° East 180 207 2,000 -774 Descending Albuquerque Center
Fri 01:36:46 PM 33.4408 -112.0386 90° East 155 178 1,300 -677 Descending Albuquerque Center

Login

Don't have an account? Register now (free) for customized features, flight alerts, and more!